Time;durP1;ratioP1;P1;durP2;ratioP2;P2;SDS_P1;SDS_P2;PMS_P1;PMS_P2;Temp;Humidity;BMP_temperature;BMP_pressure;BME280_temperature;BME280_humidity;BME280_pressure;Samples;Min_cycle;Max_cycle;Signal;HPM_P1;HPM_P2
2023/05/25 00:01:01;;;;;;;31.90;22.00;;;;;;;14.50;85.17;101051.44;105316;1270;97993;-84
2023/05/25 00:03:48;;;;;;;38.70;22.60;;;;;;;14.51;85.51;101052.48;105159;1271;97901;-84
2023/05/25 00:06:36;;;;;;;36.50;22.60;;;;;;;14.53;85.53;101049.71;105320;1266;98429;-83
2023/05/25 00:09:23;;;;;;;34.00;23.20;;;;;;;14.55;85.80;101047.40;105287;1270;102957;-84
2023/05/25 00:12:10;;;;;;;33.00;22.40;;;;;;;14.53;85.97;101041.50;105310;1267;100521;-83
2023/05/25 00:14:55;;;;;;;34.20;24.10;;;;;;;14.49;86.30;101034.55;105157;1267;99006;-83
2023/05/25 00:17:40;;;;;;;38.00;25.00;;;;;;;14.48;86.60;101030.02;105282;1267;98125;-85
2023/05/25 00:20:27;;;;;;;36.20;24.00;;;;;;;14.49;86.62;101031.27;105306;1270;99151;-85
2023/05/25 00:23:12;;;;;;;36.80;25.60;;;;;;;14.48;86.83;101031.23;105321;1268;102006;-85
2023/05/25 00:26:00;;;;;;;40.30;25.90;;;;;;;14.47;87.01;101030.35;105224;1267;99572;-82
2023/05/25 00:28:45;;;;;;;41.50;26.80;;;;;;;14.48;87.21;101031.85;105267;1270;98960;-84
2023/05/25 00:31:32;;;;;;;40.80;25.60;;;;;;;14.49;87.55;101035.97;105262;1273;98587;-83
2023/05/25 00:34:18;;;;;;;40.90;26.60;;;;;;;14.51;87.59;101039.00;105400;1267;98501;-84
2023/05/25 00:37:04;;;;;;;36.30;26.00;;;;;;;14.53;87.85;101043.32;105215;1267;101363;-83
2023/05/25 00:39:50;;;;;;;43.20;26.50;;;;;;;14.57;88.06;101039.39;105341;1267;100380;-84
2023/05/25 00:42:38;;;;;;;38.90;25.70;;;;;;;14.60;87.98;101038.58;105295;1271;98508;-84
2023/05/25 00:45:23;;;;;;;41.70;27.90;;;;;;;14.60;87.96;101041.61;105515;1267;98544;-84
2023/05/25 00:48:09;;;;;;;36.30;26.20;;;;;;;14.62;88.11;101044.27;105351;1267;97771;-84
2023/05/25 00:50:59;;;;;;;41.90;26.50;;;;;;;14.62;88.14;101048.45;105306;1270;101386;-87
2023/05/25 00:53:45;;;;;;;40.80;27.60;;;;;;;14.56;88.37;101052.05;105342;1267;100354;-84
2023/05/25 00:56:37;;;;;;;40.10;26.80;;;;;;;14.56;88.38;101057.02;105324;1267;98137;-84
2023/05/25 00:59:34;;;;;;;37.30;26.20;;;;;;;14.57;88.80;101058.88;105307;1267;99203;-82
2023/05/25 01:02:23;;;;;;;39.50;25.60;;;;;;;14.55;88.74;101058.55;105338;1270;99359;-84
2023/05/25 01:05:11;;;;;;;39.10;25.60;;;;;;;14.53;88.85;101060.45;105328;1267;101966;-85
2023/05/25 01:08:02;;;;;;;42.60;26.90;;;;;;;14.54;89.25;101064.81;105236;1267;99117;-84
2023/05/25 01:10:48;;;;;;;44.50;27.90;;;;;;;14.53;89.11;101070.99;105253;1270;98064;-84
2023/05/25 01:13:37;;;;;;;44.40;30.30;;;;;;;14.56;89.24;101070.42;105456;1268;97991;-84
2023/05/25 01:16:28;;;;;;;40.80;29.30;;;;;;;14.53;89.36;101068.63;105370;1267;97938;-83
2023/05/25 01:19:14;;;;;;;43.10;26.70;;;;;;;14.50;89.49;101064.55;105233;1269;102389;-84
2023/05/25 01:22:05;;;;;;;35.70;25.30;;;;;;;14.47;89.49;101062.29;105330;1270;99111;-84
2023/05/25 01:25:01;;;;;;;41.30;25.40;;;;;;;14.42;89.79;101065.05;105267;1270;98018;-86
2023/05/25 01:27:52;;;;;;;34.80;25.60;;;;;;;14.41;90.15;101064.83;105317;1267;98095;-83
2023/05/25 01:30:41;;;;;;;39.50;27.60;;;;;;;14.41;90.32;101069.22;105216;1270;98092;-86
2023/05/25 01:33:28;;;;;;;43.20;26.70;;;;;;;14.40;90.34;101068.48;105407;1267;101365;-84
2023/05/25 01:36:14;;;;;;;40.00;27.10;;;;;;;14.37;90.31;101061.87;105387;1267;99739;-83
2023/05/25 01:39:00;;;;;;;37.80;25.30;;;;;;;14.35;90.54;101063.31;105185;1273;99160;-85
2023/05/25 01:41:46;;;;;;;40.70;27.10;;;;;;;14.32;90.63;101062.46;105211;1271;98469;-83
2023/05/25 01:44:31;;;;;;;45.30;28.00;;;;;;;14.29;90.99;101060.54;105285;1270;99160;-83
2023/05/25 01:47:50;;;;;;;41.90;27.60;;;;;;;14.30;91.33;101061.88;105201;1270;101441;-85
2023/05/25 01:50:58;;;;;;;43.30;27.10;;;;;;;14.30;91.50;101061.21;105322;1270;99690;-85
2023/05/25 01:53:53;;;;;;;40.30;27.20;;;;;;;14.29;91.44;101059.87;105251;1265;97919;-84
2023/05/25 01:56:41;;;;;;;40.00;27.80;;;;;;;14.25;91.45;101060.40;105230;1270;97945;-83
2023/05/25 01:59:28;;;;;;;41.40;25.50;;;;;;;14.21;91.58;101058.34;105367;1267;98823;-84
2023/05/25 02:02:17;;;;;;;36.50;25.30;;;;;;;14.16;91.66;101059.55;105314;1265;102169;-83
2023/05/25 02:05:05;;;;;;;37.80;24.60;;;;;;;14.15;92.04;101058.73;105452;1267;99459;-82
2023/05/25 02:07:51;;;;;;;38.40;25.80;;;;;;;14.16;92.24;101060.69;105209;1265;99070;-85
2023/05/25 02:10:36;;;;;;;37.50;25.80;;;;;;;14.13;92.42;101061.00;105305;1265;98855;-84
2023/05/25 02:13:23;;;;;;;39.70;27.50;;;;;;;14.13;92.52;101064.77;105363;1270;98174;-84
2023/05/25 02:16:09;;;;;;;45.80;27.10;;;;;;;14.15;92.63;101064.75;105213;1265;102109;-84
2023/05/25 02:18:56;;;;;;;39.50;27.60;;;;;;;14.18;92.60;101064.30;105332;1267;99707;-85
2023/05/25 02:21:42;;;;;;;41.40;27.60;;;;;;;14.19;92.67;101066.31;105301;1265;99177;-86
2023/05/25 02:24:27;;;;;;;43.70;28.00;;;;;;;14.20;92.63;101065.23;105210;1270;99230;-86
2023/05/25 02:27:13;;;;;;;43.40;29.00;;;;;;;14.24;92.87;101062.85;105295;1271;98532;-86
2023/05/25 02:29:59;;;;;;;37.70;27.00;;;;;;;14.24;92.77;101062.05;105290;1269;101361;-85
2023/05/25 02:32:45;;;;;;;42.20;27.80;;;;;;;14.26;92.71;101067.53;105133;1271;99705;-86
2023/05/25 02:35:31;;;;;;;45.40;29.60;;;;;;;14.25;92.81;101071.69;105288;1269;98019;-85
2023/05/25 02:38:17;;;;;;;42.90;27.80;;;;;;;14.22;92.92;101072.98;105169;1267;98398;-83
2023/05/25 02:41:03;;;;;;;42.20;27.90;;;;;;;14.16;93.02;101072.46;105267;1265;98398;-86
2023/05/25 02:43:49;;;;;;;39.90;26.80;;;;;;;14.13;93.08;101072.55;105338;1265;101454;-86
2023/05/25 02:46:35;;;;;;;45.30;29.20;;;;;;;14.09;93.17;101073.95;105243;1265;99094;-85
2023/05/25 02:49:21;;;;;;;39.50;27.90;;;;;;;14.06;93.31;101074.59;105328;1265;99028;-86
2023/05/25 02:52:06;;;;;;;40.70;28.10;;;;;;;14.02;93.49;101076.48;105286;1271;97935;-82
2023/05/25 02:54:52;;;;;;;39.00;27.70;;;;;;;14.01;93.74;101075.89;105235;1267;99576;-83
2023/05/25 02:57:43;;;;;;;43.10;28.50;;;;;;;13.99;93.95;101073.67;105237;1270;101346;-84
2023/05/25 03:00:30;;;;;;;46.20;29.00;;;;;;;14.01;94.13;101072.45;105387;1265;100407;-83
2023/05/25 03:03:17;;;;;;;46.10;28.10;;;;;;;14.06;94.00;101076.74;105306;1271;97950;-84
2023/05/25 03:06:04;;;;;;;49.00;28.90;;;;;;;14.08;94.20;101081.31;105222;1265;97999;-84
2023/05/25 03:08:51;;;;;;;42.30;27.70;;;;;;;14.08;94.23;101083.73;105431;1268;98412;-86
2023/05/25 03:11:36;;;;;;;38.10;26.90;;;;;;;14.09;94.09;101087.42;105310;1267;102818;-84
2023/05/25 03:14:22;;;;;;;51.70;29.30;;;;;;;14.10;94.31;101088.88;105256;1266;99207;-84
2023/05/25 03:17:15;;;;;;;45.90;29.00;;;;;;;14.11;94.25;101092.52;105369;1267;99536;-86
2023/05/25 03:20:01;;;;;;;42.90;28.60;;;;;;;14.11;94.21;101097.45;105269;1265;98492;-84
2023/05/25 03:22:47;;;;;;;41.40;27.40;;;;;;;14.12;94.33;101099.42;105296;1265;97868;-83
2023/05/25 03:25:33;;;;;;;41.10;26.40;;;;;;;14.15;94.38;101096.65;105332;1265;101377;-85
2023/05/25 03:28:19;;;;;;;42.30;28.70;;;;;;;14.16;94.40;101100.81;105422;1265;99121;-87
2023/05/25 03:31:05;;;;;;;40.30;26.30;;;;;;;14.17;94.43;101101.07;105239;1267;99265;-86
2023/05/25 03:33:50;;;;;;;40.40;27.60;;;;;;;14.17;94.29;101098.38;105243;1269;97949;-86
2023/05/25 03:36:37;;;;;;;44.50;27.20;;;;;;;14.16;94.42;101094.34;105370;1270;99170;-87
2023/05/25 03:39:23;;;;;;;40.80;25.90;;;;;;;14.18;94.37;101098.29;105217;1265;102102;-86
2023/05/25 03:42:09;;;;;;;44.30;26.60;;;;;;;14.20;94.32;101099.30;105272;1267;99181;-84
2023/05/25 03:44:57;;;;;;;41.70;27.80;;;;;;;14.17;94.49;101099.08;105398;1267;99026;-84
2023/05/25 03:47:44;;;;;;;40.00;26.10;;;;;;;14.16;94.39;101096.20;105297;1265;97978;-85
2023/05/25 03:50:30;;;;;;;37.70;26.90;;;;;;;14.18;94.58;101092.95;105362;1270;98027;-85
2023/05/25 03:53:15;;;;;;;43.10;26.30;;;;;;;14.21;94.51;101098.20;105330;1265;101405;-86
2023/05/25 03:56:01;;;;;;;46.30;28.50;;;;;;;14.23;94.57;101098.16;105681;1265;99134;-86
2023/05/25 03:58:46;;;;;;;36.10;26.30;;;;;;;14.26;94.58;101104.61;105387;1269;97910;-86
2023/05/25 04:01:32;;;;;;;38.60;25.10;;;;;;;14.27;94.46;101101.25;105205;1265;98085;-85
2023/05/25 04:04:17;;;;;;;39.30;26.40;;;;;;;14.26;94.46;101102.83;105361;1267;97802;-83
2023/05/25 04:07:02;;;;;;;38.70;25.40;;;;;;;14.26;94.36;101107.30;105267;1265;111286;-85
2023/05/25 04:09:49;;;;;;;46.00;29.40;;;;;;;14.21;94.20;101107.60;105414;1265;99080;-86
2023/05/25 04:12:35;;;;;;;39.50;26.30;;;;;;;14.19;94.49;101108.46;105307;1265;99263;-86
2023/05/25 04:15:21;;;;;;;40.10;26.20;;;;;;;14.17;94.61;101112.42;105282;1269;97984;-86
2023/05/25 04:18:21;;;;;;;48.20;27.40;;;;;;;14.15;94.35;101115.94;105218;1265;99298;-87
2023/05/25 04:21:07;;;;;;;36.50;25.70;;;;;;;14.13;94.60;101118.28;105208;1269;101410;-85
2023/05/25 04:23:53;;;;;;;41.30;26.90;;;;;;;14.14;94.81;101116.29;105342;1265;99671;-86
2023/05/25 04:26:40;;;;;;;41.30;27.80;;;;;;;14.13;94.66;101114.38;105264;1265;97879;-85
2023/05/25 04:29:27;;;;;;;38.30;25.20;;;;;;;14.11;94.84;101114.16;105327;1265;97977;-84
2023/05/25 04:32:36;;;;;;;39.20;26.80;;;;;;;14.07;94.79;101111.04;105134;1265;97879;-84
2023/05/25 04:35:45;;;;;;;37.00;25.70;;;;;;;14.06;94.85;101109.38;105328;1270;101357;-85
2023/05/25 04:38:32;;;;;;;38.60;26.60;;;;;;;14.10;95.14;101113.91;105219;1269;100288;-84
2023/05/25 04:41:18;;;;;;;37.90;25.80;;;;;;;14.13;95.11;101117.16;105348;1267;99028;-85
2023/05/25 04:44:08;;;;;;;43.00;26.40;;;;;;;14.17;95.03;101116.91;105186;1268;98139;-84
2023/05/25 04:46:56;;;;;;;38.50;26.70;;;;;;;14.18;95.03;101120.06;105297;1265;97913;-85
2023/05/25 04:49:52;;;;;;;42.50;27.20;;;;;;;14.15;95.06;101121.45;105304;1265;101360;-85
2023/05/25 04:52:39;;;;;;;42.00;27.40;;;;;;;14.14;95.17;101121.44;105216;1272;99144;-84
2023/05/25 04:55:24;;;;;;;39.30;25.70;;;;;;;14.13;95.20;101121.85;105340;1269;98992;-83
2023/05/25 04:58:10;;;;;;;39.40;26.60;;;;;;;14.14;95.27;101126.23;105296;1270;97929;-85
2023/05/25 05:00:56;;;;;;;42.50;25.80;;;;;;;14.18;95.27;101130.05;105319;1270;97941;-84
2023/05/25 05:03:42;;;;;;;37.90;26.50;;;;;;;14.18;95.15;101133.32;105335;1270;102734;-83
2023/05/25 05:06:28;;;;;;;37.90;26.10;;;;;;;14.15;95.34;101133.02;105213;1264;99151;-84
2023/05/25 05:09:14;;;;;;;42.60;27.50;;;;;;;14.14;95.68;101128.94;105443;1268;97990;-85
2023/05/25 05:12:01;;;;;;;35.70;25.00;;;;;;;14.16;95.41;101130.39;105279;1265;99227;-85
2023/05/25 05:14:51;;;;;;;37.70;26.20;;;;;;;14.16;95.44;101130.86;105343;1266;97977;-85
2023/05/25 05:17:40;;;;;;;41.40;27.30;;;;;;;14.13;95.67;101128.16;105319;1270;102690;-84
2023/05/25 05:20:57;;;;;;;36.20;24.30;;;;;;;14.12;95.66;101126.15;105283;1270;101958;-86
2023/05/25 05:23:43;;;;;;;40.80;26.40;;;;;;;14.12;95.80;101129.77;105277;1265;97901;-87
2023/05/25 05:26:29;;;;;;;37.50;25.90;;;;;;;14.14;95.64;101130.56;105104;1267;97977;-85
2023/05/25 05:29:15;;;;;;;32.90;25.20;;;;;;;14.14;95.76;101129.08;105249;1266;98402;-85
2023/05/25 05:32:01;;;;;;;39.50;25.80;;;;;;;14.17;95.81;101131.25;105206;1265;101366;-84
2023/05/25 05:34:47;;;;;;;36.40;25.90;;;;;;;14.21;96.03;101134.88;105128;1265;100466;-84
2023/05/25 05:37:47;;;;;;;37.70;26.50;;;;;;;14.26;96.25;101135.08;105281;1265;97984;-85
2023/05/25 05:40:33;;;;;;;36.50;26.30;;;;;;;14.29;96.02;101134.70;105413;1267;99285;-85
2023/05/25 05:43:19;;;;;;;39.10;26.80;;;;;;;14.33;95.99;101137.30;105377;1265;98046;-85
2023/05/25 05:46:05;;;;;;;38.70;25.90;;;;;;;14.37;95.89;101141.31;105237;1265;102356;-85
2023/05/25 05:48:51;;;;;;;34.10;24.80;;;;;;;14.41;95.76;101145.36;105379;1271;99995;-85
2023/05/25 05:51:36;;;;;;;38.10;25.50;;;;;;;14.43;95.61;101150.55;105167;1270;97903;-85
2023/05/25 05:54:22;;;;;;;38.80;25.60;;;;;;;14.44;95.69;101157.00;105355;1265;98039;-84
2023/05/25 05:57:08;;;;;;;37.70;25.60;;;;;;;14.47;95.70;101161.98;105455;1267;98401;-84
2023/05/25 05:59:53;;;;;;;32.80;23.60;;;;;;;14.50;95.50;101172.04;105499;1265;102645;-85
2023/05/25 06:02:38;;;;;;;33.80;24.10;;;;;;;14.51;95.52;101174.20;105492;1267;99094;-87
2023/05/25 06:05:24;;;;;;;34.90;24.20;;;;;;;14.53;95.35;101169.08;105677;1265;98800;-86
2023/05/25 06:08:10;;;;;;;33.20;24.00;;;;;;;14.56;95.32;101168.89;105407;1273;97996;-84
2023/05/25 06:10:56;;;;;;;35.50;24.90;;;;;;;14.60;95.26;101174.35;105307;1267;98399;-85
2023/05/25 06:13:42;;;;;;;33.90;24.20;;;;;;;14.61;95.22;101174.22;105234;1272;102649;-85
2023/05/25 06:16:28;;;;;;;36.70;25.10;;;;;;;14.63;95.24;101170.90;105590;1265;101732;-85
2023/05/25 06:19:13;;;;;;;33.20;24.00;;;;;;;14.65;95.16;101169.85;105740;1265;98596;-86
2023/05/25 06:21:59;;;;;;;32.50;25.00;;;;;;;14.70;95.20;101169.84;105577;1268;97824;-91
2023/05/25 06:24:45;;;;;;;37.80;24.80;;;;;;;14.73;95.14;101172.61;106153;1265;98036;-89
2023/05/25 06:27:31;;;;;;;31.40;22.90;;;;;;;14.75;94.75;101173.83;106178;1265;102846;-90
2023/05/25 06:30:17;;;;;;;33.60;24.50;;;;;;;14.77;94.72;101176.34;105931;1267;100889;-89
2023/05/25 06:33:03;;;;;;;28.80;22.80;;;;;;;14.80;94.89;101179.26;105608;1265;98731;-86
2023/05/25 06:35:51;;;;;;;31.10;24.30;;;;;;;14.84;95.04;101182.67;105806;1265;97794;-87
2023/05/25 06:38:37;;;;;;;30.80;24.40;;;;;;;14.86;94.65;101185.43;105876;1265;97997;-88
2023/05/25 06:41:22;;;;;;;32.20;23.80;;;;;;;14.91;94.68;101187.86;105461;1270;101552;-87
2023/05/25 06:44:08;;;;;;;33.40;24.40;;;;;;;14.95;94.66;101187.11;105536;1265;99159;-88
2023/05/25 06:47:00;;;;;;;28.90;23.80;;;;;;;15.00;94.44;101188.36;105376;1265;98023;-86
2023/05/25 06:49:46;;;;;;;30.00;23.30;;;;;;;15.03;94.22;101186.12;105519;1265;98223;-85
2023/05/25 06:52:32;;;;;;;33.70;24.20;;;;;;;15.04;94.18;101182.52;105565;1265;98432;-87
2023/05/25 06:55:18;;;;;;;30.60;23.50;;;;;;;15.08;94.09;101181.33;105641;1265;101379;-88
2023/05/25 06:58:03;;;;;;;32.00;24.20;;;;;;;15.14;93.96;101181.88;105869;1265;99288;-89
2023/05/25 07:00:49;;;;;;;36.50;24.30;;;;;;;15.18;93.88;101181.66;105368;1265;98039;-87
2023/05/25 07:03:37;;;;;;;30.90;23.40;;;;;;;15.23;93.66;101180.92;105906;1265;97984;-86
2023/05/25 07:06:23;;;;;;;33.80;25.10;;;;;;;15.24;93.31;101180.97;105920;1265;98525;-89
2023/05/25 07:09:09;;;;;;;33.10;23.40;;;;;;;15.25;93.04;101179.18;105991;1265;101356;-84
2023/05/25 07:11:54;;;;;;;30.70;24.40;;;;;;;15.27;93.15;101180.89;106051;1270;99891;-89
2023/05/25 07:14:40;;;;;;;34.60;24.60;;;;;;;15.33;93.54;101178.42;105930;1265;99023;-88
2023/05/25 07:17:27;;;;;;;31.30;23.60;;;;;;;15.45;93.70;101176.03;105596;1265;98534;-83
2023/05/25 07:20:13;;;;;;;30.60;22.80;;;;;;;15.57;93.83;101175.52;105506;1269;97977;-83
2023/05/25 07:22:58;;;;;;;30.40;23.20;;;;;;;15.64;92.87;101171.30;105497;1265;101362;-84
2023/05/25 07:25:44;;;;;;;31.30;23.10;;;;;;;15.66;92.77;101171.88;105398;1265;100370;-82
2023/05/25 07:28:30;;;;;;;30.60;24.20;;;;;;;15.69;92.29;101171.64;105356;1267;98775;-83
2023/05/25 07:31:16;;;;;;;28.00;24.00;;;;;;;15.73;92.06;101175.73;105888;1270;97879;-89
2023/05/25 07:34:02;;;;;;;33.00;23.00;;;;;;;15.79;92.15;101174.26;105968;1271;98071;-84
2023/05/25 07:36:47;;;;;;;28.30;22.40;;;;;;;15.86;92.25;101177.51;105722;1267;101610;-84
2023/05/25 07:39:33;;;;;;;28.40;23.30;;;;;;;16.02;92.96;101172.55;105389;1269;100395;-85
2023/05/25 07:42:20;;;;;;;34.40;24.70;;;;;;;16.17;92.10;101173.52;105445;1267;97972;-83
2023/05/25 07:45:06;;;;;;;32.90;23.90;;;;;;;16.29;91.77;101174.45;105267;1265;97961;-85
2023/05/25 07:47:52;;;;;;;27.10;23.90;;;;;;;16.34;91.17;101179.48;105374;1265;97796;-85
2023/05/25 07:50:37;;;;;;;29.50;23.60;;;;;;;16.36;91.07;101179.52;105482;1265;101465;-90
2023/05/25 07:53:23;;;;;;;33.50;25.00;;;;;;;16.38;90.28;101184.84;105740;1272;99152;-87
2023/05/25 07:56:09;;;;;;;32.30;22.90;;;;;;;16.36;89.91;101182.52;105827;1265;99008;-86
2023/05/25 07:58:55;;;;;;;33.60;23.60;;;;;;;16.36;89.88;101184.60;105830;1265;98069;-87
2023/05/25 08:01:41;;;;;;;32.10;23.60;;;;;;;16.38;89.90;101187.42;105815;1270;98085;-86
2023/05/25 08:04:28;;;;;;;31.30;24.60;;;;;;;16.38;89.62;101185.42;105653;1271;101362;-87
2023/05/25 08:07:13;;;;;;;34.00;24.60;;;;;;;16.41;89.62;101181.38;105630;1265;99089;-87
2023/05/25 08:10:00;;;;;;;29.70;23.20;;;;;;;16.48;89.91;101177.48;105533;1273;98741;-87
2023/05/25 08:12:45;;;;;;;28.00;22.30;;;;;;;16.56;89.58;101180.77;105571;1267;98018;-85
2023/05/25 08:15:31;;;;;;;30.60;23.60;;;;;;;16.65;89.97;101178.98;105630;1265;98475;-86
2023/05/25 08:18:18;;;;;;;30.30;23.40;;;;;;;16.71;89.59;101175.69;105766;1271;101351;-85
2023/05/25 08:21:04;;;;;;;30.90;23.00;;;;;;;16.86;89.92;101171.52;105953;1265;99092;-88
2023/05/25 08:23:50;;;;;;;27.70;22.00;;;;;;;17.06;90.43;101174.18;105944;1269;98952;-88
2023/05/25 08:26:36;;;;;;;27.00;23.30;;;;;;;17.25;90.08;101178.42;105755;1265;98020;-84
2023/05/25 08:29:21;;;;;;;26.50;22.30;;;;;;;17.42;89.91;101177.16;105312;1265;98420;-83
2023/05/25 08:32:07;;;;;;;27.10;22.40;;;;;;;17.61;89.69;101176.23;105612;1265;101367;-83
2023/05/25 08:34:52;;;;;;;29.60;23.30;;;;;;;17.76;88.13;101181.89;105602;1265;100384;-83
2023/05/25 08:37:38;;;;;;;27.70;22.70;;;;;;;17.91;87.28;101178.27;105350;1267;98082;-85
2023/05/25 08:40:27;;;;;;;30.50;24.20;;;;;;;18.06;86.83;101175.86;105294;1265;98022;-85
2023/05/25 08:43:13;;;;;;;30.70;23.10;;;;;;;18.19;87.85;101178.75;105437;1266;98509;-89
2023/05/25 08:46:03;;;;;;;30.20;22.20;;;;;;;18.31;87.27;101177.80;105557;1270;101673;-88
2023/05/25 08:48:50;;;;;;;27.90;24.30;;;;;;;18.47;86.95;101174.33;105421;1265;100599;-86
2023/05/25 08:51:40;;;;;;;26.30;20.70;;;;;;;18.60;86.27;101178.09;106819;1265;98554;-89
2023/05/25 08:54:36;;;;;;;25.00;20.60;;;;;;;18.67;85.38;101177.80;106561;1266;97974;-80
2023/05/25 08:57:33;;;;;;;27.60;21.60;;;;;;;18.70;85.18;101181.23;105817;1265;97887;-82
2023/05/25 09:00:23;;;;;;;28.70;22.10;;;;;;;18.78;84.55;101185.16;105564;1265;103090;-83
2023/05/25 09:03:18;;;;;;;27.90;22.40;;;;;;;18.80;83.34;101184.23;105801;1265;99210;-82
2023/05/25 09:06:04;;;;;;;25.50;21.30;;;;;;;18.90;83.66;101184.52;105761;1270;99467;-85
2023/05/25 09:08:50;;;;;;;26.80;20.40;;;;;;;19.01;83.80;101180.23;106071;1265;97996;-86
2023/05/25 09:11:36;;;;;;;25.30;20.70;;;;;;;19.12;83.30;101177.30;106274;1266;98567;-79
2023/05/25 09:14:21;;;;;;;26.60;20.90;;;;;;;19.24;82.93;101182.36;105291;1270;102634;-77
2023/05/25 09:17:07;;;;;;;24.60;20.60;;;;;;;19.31;81.62;101184.98;105261;1268;99110;-80
2023/05/25 09:19:53;;;;;;;25.60;20.40;;;;;;;19.36;81.83;101182.35;105344;1270;99022;-79
2023/05/25 09:22:40;;;;;;;25.80;20.40;;;;;;;19.46;81.54;101182.09;105518;1265;97464;-80
2023/05/25 09:25:28;;;;;;;24.10;20.70;;;;;;;19.53;81.72;101176.77;104928;1265;97926;-82
2023/05/25 09:28:13;;;;;;;24.60;19.80;;;;;;;19.58;81.06;101182.30;104774;1267;101372;-77
2023/05/25 09:30:59;;;;;;;26.60;19.70;;;;;;;19.66;81.34;101184.60;104919;1265;99197;-81
2023/05/25 09:33:45;;;;;;;23.00;19.10;;;;;;;19.74;80.97;101187.11;105046;1269;98993;-81
2023/05/25 09:36:33;;;;;;;22.40;20.00;;;;;;;19.79;80.50;101186.79;105630;1269;98054;-81
2023/05/25 09:39:18;;;;;;;23.00;19.50;;;;;;;19.82;79.61;101186.31;105581;1269;98439;-81
2023/05/25 09:42:05;;;;;;;25.00;19.80;;;;;;;19.84;79.75;101184.28;105601;1268;103309;-81
2023/05/25 09:44:50;;;;;;;25.00;18.40;;;;;;;19.89;79.73;101189.60;105429;1265;99141;-81
2023/05/25 09:47:37;;;;;;;24.90;19.30;;;;;;;19.95;79.74;101188.66;105636;1271;97993;-81
2023/05/25 09:50:22;;;;;;;25.20;17.50;;;;;;;20.03;79.56;101187.83;105365;1269;98781;-80
2023/05/25 09:53:08;;;;;;;21.50;17.70;;;;;;;20.15;80.01;101191.06;105492;1265;98537;-79
2023/05/25 09:55:55;;;;;;;20.60;18.20;;;;;;;20.25;79.00;101183.13;105329;1265;101833;-80
2023/05/25 09:58:40;;;;;;;26.20;19.50;;;;;;;20.30;78.78;101184.85;105633;1268;99137;-80
2023/05/25 10:01:27;;;;;;;25.30;17.70;;;;;;;20.36;78.10;101185.70;105006;1265;99013;-80
2023/05/25 10:04:15;;;;;;;22.70;17.70;;;;;;;20.42;78.21;101185.08;105018;1270;97989;-80
2023/05/25 10:07:02;;;;;;;19.10;16.70;;;;;;;20.47;76.91;101187.13;105077;1265;98458;-82
2023/05/25 10:09:52;;;;;;;24.40;16.00;;;;;;;20.47;77.17;101181.71;105428;1265;101372;-80
2023/05/25 10:12:40;;;;;;;19.40;17.10;;;;;;;20.57;77.78;101178.94;105000;1265;99082;-79
2023/05/25 10:15:26;;;;;;;19.70;16.60;;;;;;;20.62;76.23;101175.80;105041;1270;98564;-80
2023/05/25 10:18:14;;;;;;;28.40;16.10;;;;;;;20.62;76.46;101174.77;105091;1265;97896;-80
2023/05/25 10:21:03;;;;;;;25.10;18.60;;;;;;;20.70;76.70;101177.89;105511;1265;97940;-79
2023/05/25 10:23:53;;;;;;;22.20;16.90;;;;;;;20.71;75.46;101180.05;105531;1265;102653;-79
2023/05/25 10:26:40;;;;;;;18.80;16.50;;;;;;;20.75;75.64;101180.13;105602;1265;99101;-80
2023/05/25 10:29:27;;;;;;;22.00;17.20;;;;;;;20.85;75.86;101177.27;105551;1265;98034;-80
2023/05/25 10:32:15;;;;;;;24.60;17.90;;;;;;;20.95;76.21;101174.34;105646;1269;97933;-80
2023/05/25 10:35:02;;;;;;;18.50;16.60;;;;;;;21.03;75.90;101173.27;105541;1265;97983;-81
2023/05/25 10:37:50;;;;;;;22.70;17.60;;;;;;;21.08;75.36;101172.58;105672;1265;101335;-81
2023/05/25 10:40:37;;;;;;;20.90;17.20;;;;;;;21.13;74.82;101172.19;105778;1269;100345;-80
2023/05/25 10:43:23;;;;;;;25.00;19.90;;;;;;;21.24;75.26;101173.59;105740;1265;99170;-82
2023/05/25 10:46:08;;;;;;;21.30;17.20;;;;;;;21.31;74.39;101168.83;105695;1269;99246;-80
2023/05/25 10:49:00;;;;;;;18.40;16.00;;;;;;;21.35;74.93;101169.35;105725;1266;97974;-81
2023/05/25 10:51:57;;;;;;;19.40;15.70;;;;;;;21.42;74.58;101163.98;105750;1265;102659;-81
2023/05/25 10:54:43;;;;;;;24.30;17.80;;;;;;;21.51;74.54;101162.07;105782;1265;100039;-81
2023/05/25 10:57:29;;;;;;;21.50;16.90;;;;;;;21.61;74.58;101159.08;105861;1269;97993;-79
2023/05/25 11:00:15;;;;;;;19.00;16.10;;;;;;;21.69;73.82;101158.40;105725;1265;96714;-80
2023/05/25 11:03:00;;;;;;;20.40;15.00;;;;;;;21.72;73.33;101159.16;105542;1270;98572;-80
2023/05/25 11:05:49;;;;;;;17.80;15.70;;;;;;;21.78;73.41;101155.45;104981;1265;101359;-79
2023/05/25 11:08:55;;;;;;;15.80;14.10;;;;;;;21.88;73.01;101157.67;104937;1265;99123;-79
2023/05/25 11:11:44;;;;;;;18.80;13.10;;;;;;;21.93;72.22;101155.04;105581;1269;99153;-81
2023/05/25 11:14:40;;;;;;;18.60;13.00;;;;;;;21.95;71.68;101156.11;105929;1265;97991;-92
2023/05/25 11:17:31;;;;;;;18.20;14.50;;;;;;;22.01;71.12;101154.14;105970;1265;97892;-88
2023/05/25 11:20:24;;;;;;;14.60;12.70;;;;;;;22.00;70.52;101150.41;105521;1269;101486;-87
2023/05/25 11:23:22;;;;;;;16.30;12.40;;;;;;;21.99;70.34;101148.98;105411;1272;99082;-85
2023/05/25 11:26:21;;;;;;;13.60;12.20;;;;;;;22.02;70.43;101144.16;105658;1265;98088;-87
2023/05/25 11:29:14;;;;;;;15.60;12.00;;;;;;;22.07;70.35;101129.79;105575;1265;98110;-81
2023/05/25 11:32:01;;;;;;;15.60;11.60;;;;;;;22.17;69.95;101132.17;104819;1269;97848;-79
2023/05/25 11:34:46;;;;;;;12.10;10.90;;;;;;;22.23;69.82;101131.17;104767;1269;102634;-79
2023/05/25 11:37:32;;;;;;;15.10;11.20;;;;;;;22.27;69.15;101135.45;104731;1265;100301;-79
2023/05/25 11:40:22;;;;;;;11.50;10.30;;;;;;;22.27;69.75;101132.48;104743;1270;99122;-79
2023/05/25 11:43:08;;;;;;;15.30;12.00;;;;;;;22.33;68.85;101133.23;104786;1265;97893;-79
2023/05/25 11:45:55;;;;;;;13.40;11.40;;;;;;;22.36;69.29;101132.95;104857;1269;98436;-81
2023/05/25 11:48:51;;;;;;;11.80;10.60;;;;;;;22.46;69.33;101136.58;105188;1269;103324;-81
2023/05/25 11:51:37;;;;;;;14.30;10.60;;;;;;;22.56;69.80;101138.48;105317;1271;99115;-80
2023/05/25 11:54:28;;;;;;;13.80;10.70;;;;;;;22.64;69.49;101139.45;104986;1265;97930;-80
2023/05/25 11:57:16;;;;;;;13.30;10.50;;;;;;;22.65;68.42;101138.67;105031;1271;97879;-80
2023/05/25 12:00:05;;;;;;;12.50;9.90;;;;;;;22.64;67.84;101136.44;105089;1270;98608;-80
2023/05/25 12:02:52;;;;;;;13.50;10.00;;;;;;;22.66;67.78;101136.51;104926;1265;103632;-79
2023/05/25 12:05:37;;;;;;;10.30;9.00;;;;;;;22.71;67.98;101137.27;104856;1272;100395;-79
2023/05/25 12:08:33;;;;;;;14.50;9.10;;;;;;;22.68;66.88;101140.09;104740;1269;98385;-78
2023/05/25 12:11:34;;;;;;;10.20;8.70;;;;;;;22.64;66.32;101140.02;104630;1270;99272;-80
2023/05/25 12:14:19;;;;;;;13.90;8.50;;;;;;;22.69;66.42;101140.48;104856;1268;98003;-79
2023/05/25 12:17:05;;;;;;;12.00;8.50;;;;;;;22.75;66.01;101130.83;104851;1271;101349;-79
2023/05/25 12:19:50;;;;;;;11.90;7.90;;;;;;;22.80;66.16;101131.17;104886;1269;100371;-79
2023/05/25 12:22:38;;;;;;;10.50;8.00;;;;;;;22.88;66.24;101136.52;104817;1266;99321;-80
2023/05/25 12:25:23;;;;;;;9.90;7.70;;;;;;;22.93;65.23;101131.23;104815;1265;97965;-79
2023/05/25 12:28:14;;;;;;;9.90;7.70;;;;;;;22.95;65.05;101128.14;104827;1271;97918;-80
2023/05/25 12:31:22;;;;;;;7.70;6.70;;;;;;;23.01;64.87;101122.08;104605;1269;101465;-79